sensor_id;sensor_type;location;lat;lon;timestamp;P1;durP1;ratioP1;P2;durP2;ratioP2
64210;SDS011;50528;48.514;14.394;2023-02-15T00:00:21;35.50;;;20.50;;
64210;SDS011;50528;48.514;14.394;2023-02-15T00:01:15;31.60;;;19.20;;
64210;SDS011;50528;48.514;14.394;2023-02-15T00:01:49;35.60;;;20.60;;
64210;SDS011;50528;48.514;14.394;2023-02-15T00:02:23;35.20;;;20.90;;
64210;SDS011;50528;48.514;14.394;2023-02-15T00:02:57;34.50;;;20.70;;
64210;SDS011;50528;48.514;14.394;2023-02-15T00:03:31;38.40;;;22.00;;
64210;SDS011;50528;48.514;14.394;2023-02-15T00:04:05;34.90;;;20.60;;
64210;SDS011;50528;48.514;14.394;2023-02-15T00:04:39;36.80;;;20.70;;
64210;SDS011;50528;48.514;14.394;2023-02-15T00:05:24;34.40;;;20.00;;
64210;SDS011;50528;48.514;14.394;2023-02-15T00:05:58;38.90;;;21.90;;
64210;SDS011;50528;48.514;14.394;2023-02-15T00:06:35;36.30;;;21.20;;
64210;SDS011;50528;48.514;14.394;2023-02-15T00:07:09;36.70;;;21.60;;
64210;SDS011;50528;48.514;14.394;2023-02-15T00:07:42;36.10;;;21.70;;
64210;SDS011;50528;48.514;14.394;2023-02-15T00:08:16;34.90;;;21.60;;
64210;SDS011;50528;48.514;14.394;2023-02-15T00:08:49;39.30;;;22.30;;
64210;SDS011;50528;48.514;14.394;2023-02-15T00:09:23;40.80;;;22.50;;
64210;SDS011;50528;48.514;14.394;2023-02-15T00:09:56;35.70;;;21.10;;
64210;SDS011;50528;48.514;14.394;2023-02-15T00:10:30;41.20;;;22.40;;
64210;SDS011;50528;48.514;14.394;2023-02-15T00:11:07;38.40;;;21.70;;
64210;SDS011;50528;48.514;14.394;2023-02-15T00:11:42;41.80;;;22.60;;
64210;SDS011;50528;48.514;14.394;2023-02-15T00:12:17;36.10;;;21.50;;
64210;SDS011;50528;48.514;14.394;2023-02-15T00:12:51;38.60;;;22.10;;
64210;SDS011;50528;48.514;14.394;2023-02-15T00:13:25;39.30;;;23.00;;
64210;SDS011;50528;48.514;14.394;2023-02-15T00:13:58;40.60;;;22.70;;
64210;SDS011;50528;48.514;14.394;2023-02-15T00:14:32;51.20;;;23.20;;
64210;SDS011;50528;48.514;14.394;2023-02-15T00:15:06;36.30;;;22.30;;
64210;SDS011;50528;48.514;14.394;2023-02-15T00:15:40;39.80;;;22.50;;
64210;SDS011;50528;48.514;14.394;2023-02-15T00:16:13;37.20;;;21.80;;
64210;SDS011;50528;48.514;14.394;2023-02-15T00:16:47;45.10;;;22.90;;
64210;SDS011;50528;48.514;14.394;2023-02-15T00:17:24;43.10;;;22.10;;
64210;SDS011;50528;48.514;14.394;2023-02-15T00:18:00;37.80;;;22.70;;
64210;SDS011;50528;48.514;14.394;2023-02-15T00:18:34;37.90;;;22.20;;
64210;SDS011;50528;48.514;14.394;2023-02-15T00:19:08;35.90;;;22.20;;
64210;SDS011;50528;48.514;14.394;2023-02-15T00:19:42;37.40;;;21.50;;
64210;SDS011;50528;48.514;14.394;2023-02-15T00:20:16;36.40;;;21.60;;
64210;SDS011;50528;48.514;14.394;2023-02-15T00:20:51;34.00;;;21.40;;
64210;SDS011;50528;48.514;14.394;2023-02-15T00:21:24;34.60;;;22.00;;
64210;SDS011;50528;48.514;14.394;2023-02-15T00:21:58;34.00;;;21.70;;
64210;SDS011;50528;48.514;14.394;2023-02-15T00:22:32;34.30;;;21.70;;
64210;SDS011;50528;48.514;14.394;2023-02-15T00:23:05;35.70;;;21.70;;
64210;SDS011;50528;48.514;14.394;2023-02-15T00:23:39;36.60;;;21.10;;
64210;SDS011;50528;48.514;14.394;2023-02-15T00:24:13;39.20;;;20.80;;
64210;SDS011;50528;48.514;14.394;2023-02-15T00:24:49;31.90;;;20.80;;
64210;SDS011;50528;48.514;14.394;2023-02-15T00:25:23;33.60;;;20.50;;
64210;SDS011;50528;48.514;14.394;2023-02-15T00:26:09;36.40;;;21.60;;
64210;SDS011;50528;48.514;14.394;2023-02-15T00:26:46;36.30;;;20.40;;
64210;SDS011;50528;48.514;14.394;2023-02-15T00:27:20;39.90;;;22.10;;
64210;SDS011;50528;48.514;14.394;2023-02-15T00:27:54;35.50;;;21.00;;
64210;SDS011;50528;48.514;14.394;2023-02-15T00:28:27;38.90;;;21.70;;
64210;SDS011;50528;48.514;14.394;2023-02-15T00:29:01;36.30;;;22.10;;
64210;SDS011;50528;48.514;14.394;2023-02-15T00:29:35;35.60;;;21.30;;
64210;SDS011;50528;48.514;14.394;2023-02-15T00:30:09;37.10;;;21.50;;
64210;SDS011;50528;48.514;14.394;2023-02-15T00:30:43;38.70;;;21.90;;
64210;SDS011;50528;48.514;14.394;2023-02-15T00:31:17;33.70;;;21.60;;
64210;SDS011;50528;48.514;14.394;2023-02-15T00:31:51;36.60;;;22.20;;
64210;SDS011;50528;48.514;14.394;2023-02-15T00:32:25;34.50;;;21.00;;
64210;SDS011;50528;48.514;14.394;2023-02-15T00:32:59;35.80;;;21.70;;
64210;SDS011;50528;48.514;14.394;2023-02-15T00:33:32;34.50;;;21.40;;
64210;SDS011;50528;48.514;14.394;2023-02-15T00:34:09;31.40;;;20.80;;
64210;SDS011;50528;48.514;14.394;2023-02-15T00:34:46;24.60;;;16.60;;
64210;SDS011;50528;48.514;14.394;2023-02-15T00:35:20;28.20;;;17.80;;
64210;SDS011;50528;48.514;14.394;2023-02-15T00:36:00;25.60;;;17.00;;
64210;SDS011;50528;48.514;14.394;2023-02-15T00:37:08;22.70;;;14.70;;
64210;SDS011;50528;48.514;14.394;2023-02-15T00:37:42;46.40;;;16.70;;
64210;SDS011;50528;48.514;14.394;2023-02-15T00:38:15;42.40;;;16.20;;
64210;SDS011;50528;48.514;14.394;2023-02-15T00:38:49;35.00;;;15.80;;
64210;SDS011;50528;48.514;14.394;2023-02-15T00:39:23;27.30;;;17.30;;
64210;SDS011;50528;48.514;14.394;2023-02-15T00:39:57;35.60;;;17.00;;
64210;SDS011;50528;48.514;14.394;2023-02-15T00:40:31;27.10;;;16.20;;
64210;SDS011;50528;48.514;14.394;2023-02-15T00:41:05;45.20;;;17.70;;
64210;SDS011;50528;48.514;14.394;2023-02-15T00:41:40;43.00;;;16.80;;
64210;SDS011;50528;48.514;14.394;2023-02-15T00:42:13;67.70;;;16.40;;
64210;SDS011;50528;48.514;14.394;2023-02-15T00:42:47;62.50;;;16.40;;
64210;SDS011;50528;48.514;14.394;2023-02-15T00:43:21;72.10;;;17.20;;
64210;SDS011;50528;48.514;14.394;2023-02-15T00:43:55;71.20;;;17.50;;
64210;SDS011;50528;48.514;14.394;2023-02-15T00:44:28;81.00;;;18.80;;
64210;SDS011;50528;48.514;14.394;2023-02-15T00:45:02;43.30;;;16.50;;
64210;SDS011;50528;48.514;14.394;2023-02-15T00:45:36;52.00;;;16.20;;
64210;SDS011;50528;48.514;14.394;2023-02-15T00:46:10;87.80;;;16.40;;
64210;SDS011;50528;48.514;14.394;2023-02-15T00:46:44;100.40;;;16.60;;
64210;SDS011;50528;48.514;14.394;2023-02-15T00:47:18;122.20;;;16.70;;
64210;SDS011;50528;48.514;14.394;2023-02-15T00:47:52;104.70;;;16.70;;
64210;SDS011;50528;48.514;14.394;2023-02-15T00:48:25;74.60;;;16.70;;
64210;SDS011;50528;48.514;14.394;2023-02-15T00:48:59;81.30;;;16.60;;
64210;SDS011;50528;48.514;14.394;2023-02-15T00:49:34;32.30;;;16.50;;
64210;SDS011;50528;48.514;14.394;2023-02-15T00:50:08;34.40;;;16.30;;
64210;SDS011;50528;48.514;14.394;2023-02-15T00:50:44;29.70;;;15.60;;
64210;SDS011;50528;48.514;14.394;2023-02-15T00:51:19;23.50;;;14.90;;
64210;SDS011;50528;48.514;14.394;2023-02-15T00:51:53;28.20;;;14.80;;
64210;SDS011;50528;48.514;14.394;2023-02-15T00:52:27;33.50;;;15.00;;
64210;SDS011;50528;48.514;14.394;2023-02-15T00:53:01;26.30;;;15.50;;
64210;SDS011;50528;48.514;14.394;2023-02-15T00:53:37;26.60;;;16.10;;
64210;SDS011;50528;48.514;14.394;2023-02-15T00:54:12;50.50;;;16.20;;
64210;SDS011;50528;48.514;14.394;2023-02-15T00:54:46;32.80;;;15.30;;
64210;SDS011;50528;48.514;14.394;2023-02-15T00:55:19;27.20;;;15.80;;
64210;SDS011;50528;48.514;14.394;2023-02-15T00:55:53;72.20;;;16.90;;
64210;SDS011;50528;48.514;14.394;2023-02-15T00:56:31;48.40;;;16.30;;
64210;SDS011;50528;48.514;14.394;2023-02-15T00:57:04;34.20;;;16.10;;
64210;SDS011;50528;48.514;14.394;2023-02-15T00:57:38;62.60;;;16.30;;
64210;SDS011;50528;48.514;14.394;2023-02-15T00:58:12;41.50;;;15.10;;
64210;SDS011;50528;48.514;14.394;2023-02-15T00:58:47;31.40;;;14.70;;
64210;SDS011;50528;48.514;14.394;2023-02-15T00:59:22;23.40;;;15.10;;
64210;SDS011;50528;48.514;14.394;2023-02-15T00:59:57;39.80;;;15.20;;
64210;SDS011;50528;48.514;14.394;2023-02-15T01:00:31;28.20;;;14.90;;
64210;SDS011;50528;48.514;14.394;2023-02-15T01:01:09;49.00;;;14.90;;
64210;SDS011;50528;48.514;14.394;2023-02-15T01:01:44;41.00;;;14.80;;
64210;SDS011;50528;48.514;14.394;2023-02-15T01:02:18;71.00;;;16.10;;
64210;SDS011;50528;48.514;14.394;2023-02-15T01:02:52;58.00;;;14.90;;
64210;SDS011;50528;48.514;14.394;2023-02-15T01:03:27;54.90;;;15.30;;
64210;SDS011;50528;48.514;14.394;2023-02-15T01:04:01;43.30;;;15.70;;
64210;SDS011;50528;48.514;14.394;2023-02-15T01:04:35;47.10;;;15.60;;
64210;SDS011;50528;48.514;14.394;2023-02-15T01:05:09;45.20;;;15.90;;
64210;SDS011;50528;48.514;14.394;2023-02-15T01:05:42;24.00;;;15.60;;
64210;SDS011;50528;48.514;14.394;2023-02-15T01:06:16;34.10;;;16.60;;
64210;SDS011;50528;48.514;14.394;2023-02-15T01:06:50;23.40;;;16.40;;
64210;SDS011;50528;48.514;14.394;2023-02-15T01:07:24;26.90;;;15.80;;
64210;SDS011;50528;48.514;14.394;2023-02-15T01:07:58;31.70;;;15.30;;
64210;SDS011;50528;48.514;14.394;2023-02-15T01:08:32;27.20;;;16.00;;
64210;SDS011;50528;48.514;14.394;2023-02-15T01:09:05;23.40;;;15.50;;
64210;SDS011;50528;48.514;14.394;2023-02-15T01:09:39;27.90;;;15.50;;
64210;SDS011;50528;48.514;14.394;2023-02-15T01:10:13;25.30;;;15.60;;
64210;SDS011;50528;48.514;14.394;2023-02-15T01:10:49;34.80;;;16.70;;
64210;SDS011;50528;48.514;14.394;2023-02-15T01:11:26;35.70;;;15.30;;
64210;SDS011;50528;48.514;14.394;2023-02-15T01:11:59;30.30;;;15.00;;
64210;SDS011;50528;48.514;14.394;2023-02-15T01:12:33;34.10;;;16.20;;
64210;SDS011;50528;48.514;14.394;2023-02-15T01:13:07;34.20;;;15.90;;
64210;SDS011;50528;48.514;14.394;2023-02-15T01:13:40;22.80;;;15.20;;
64210;SDS011;50528;48.514;14.394;2023-02-15T01:14:14;23.20;;;15.50;;
64210;SDS011;50528;48.514;14.394;2023-02-15T01:14:48;24.30;;;16.10;;
64210;SDS011;50528;48.514;14.394;2023-02-15T01:15:22;26.00;;;16.60;;
64210;SDS011;50528;48.514;14.394;2023-02-15T01:15:57;26.50;;;17.00;;
64210;SDS011;50528;48.514;14.394;2023-02-15T01:16:32;25.10;;;16.30;;
64210;SDS011;50528;48.514;14.394;2023-02-15T01:17:05;26.00;;;15.00;;
64210;SDS011;50528;48.514;14.394;2023-02-15T01:17:40;27.40;;;16.00;;
64210;SDS011;50528;48.514;14.394;2023-02-15T01:18:14;23.20;;;15.50;;
64210;SDS011;50528;48.514;14.394;2023-02-15T01:18:48;24.60;;;17.00;;
64210;SDS011;50528;48.514;14.394;2023-02-15T01:19:22;23.60;;;16.00;;
64210;SDS011;50528;48.514;14.394;2023-02-15T01:19:55;23.90;;;15.90;;
64210;SDS011;50528;48.514;14.394;2023-02-15T01:20:29;29.40;;;16.10;;
64210;SDS011;50528;48.514;14.394;2023-02-15T01:21:10;39.80;;;15.40;;
64210;SDS011;50528;48.514;14.394;2023-02-15T01:21:49;22.10;;;14.70;;
64210;SDS011;50528;48.514;14.394;2023-02-15T01:22:22;31.30;;;14.50;;
64210;SDS011;50528;48.514;14.394;2023-02-15T01:22:56;23.60;;;15.30;;
64210;SDS011;50528;48.514;14.394;2023-02-15T01:23:30;21.80;;;14.10;;
64210;SDS011;50528;48.514;14.394;2023-02-15T01:24:10;56.20;;;14.40;;
64210;SDS011;50528;48.514;14.394;2023-02-15T01:24:48;28.30;;;14.60;;
64210;SDS011;50528;48.514;14.394;2023-02-15T01:25:22;23.10;;;14.10;;
64210;SDS011;50528;48.514;14.394;2023-02-15T01:26:00;21.90;;;13.80;;
64210;SDS011;50528;48.514;14.394;2023-02-15T01:26:35;23.60;;;13.30;;
64210;SDS011;50528;48.514;14.394;2023-02-15T01:27:10;24.40;;;13.60;;
64210;SDS011;50528;48.514;14.394;2023-02-15T01:27:44;28.90;;;14.00;;
64210;SDS011;50528;48.514;14.394;2023-02-15T01:28:18;21.20;;;13.30;;
64210;SDS011;50528;48.514;14.394;2023-02-15T01:28:52;23.80;;;14.00;;
64210;SDS011;50528;48.514;14.394;2023-02-15T01:29:25;21.70;;;14.50;;
64210;SDS011;50528;48.514;14.394;2023-02-15T01:29:59;35.10;;;15.20;;
64210;SDS011;50528;48.514;14.394;2023-02-15T01:30:33;23.00;;;14.20;;
64210;SDS011;50528;48.514;14.394;2023-02-15T01:31:10;19.80;;;13.90;;
64210;SDS011;50528;48.514;14.394;2023-02-15T01:31:46;34.40;;;13.50;;
64210;SDS011;50528;48.514;14.394;2023-02-15T01:32:20;25.40;;;13.90;;
64210;SDS011;50528;48.514;14.394;2023-02-15T01:32:56;19.90;;;12.90;;
64210;SDS011;50528;48.514;14.394;2023-02-15T01:33:30;33.80;;;13.60;;
64210;SDS011;50528;48.514;14.394;2023-02-15T01:34:03;17.80;;;12.80;;
64210;SDS011;50528;48.514;14.394;2023-02-15T01:34:37;18.20;;;13.50;;
64210;SDS011;50528;48.514;14.394;2023-02-15T01:35:11;19.60;;;13.90;;
64210;SDS011;50528;48.514;14.394;2023-02-15T01:35:45;21.40;;;14.70;;
64210;SDS011;50528;48.514;14.394;2023-02-15T01:36:19;22.00;;;15.50;;
64210;SDS011;50528;48.514;14.394;2023-02-15T01:36:52;23.80;;;16.10;;
64210;SDS011;50528;48.514;14.394;2023-02-15T01:37:26;25.90;;;16.60;;
64210;SDS011;50528;48.514;14.394;2023-02-15T01:37:59;23.30;;;15.90;;
64210;SDS011;50528;48.514;14.394;2023-02-15T01:38:34;22.40;;;15.20;;
64210;SDS011;50528;48.514;14.394;2023-02-15T01:39:10;22.40;;;15.20;;
64210;SDS011;50528;48.514;14.394;2023-02-15T01:39:44;24.00;;;15.90;;
64210;SDS011;50528;48.514;14.394;2023-02-15T01:40:18;24.80;;;16.00;;
64210;SDS011;50528;48.514;14.394;2023-02-15T01:40:53;23.90;;;15.70;;
64210;SDS011;50528;48.514;14.394;2023-02-15T01:41:47;24.10;;;14.60;;
64210;SDS011;50528;48.514;14.394;2023-02-15T01:42:23;24.10;;;16.30;;
64210;SDS011;50528;48.514;14.394;2023-02-15T01:42:58;23.70;;;16.30;;
64210;SDS011;50528;48.514;14.394;2023-02-15T01:43:39;22.70;;;15.40;;
64210;SDS011;50528;48.514;14.394;2023-02-15T01:45:27;22.50;;;15.10;;
64210;SDS011;50528;48.514;14.394;2023-02-15T01:46:03;23.30;;;15.10;;
64210;SDS011;50528;48.514;14.394;2023-02-15T01:46:40;25.00;;;16.70;;
64210;SDS011;50528;48.514;14.394;2023-02-15T01:48:24;26.30;;;17.00;;
64210;SDS011;50528;48.514;14.394;2023-02-15T01:49:02;23.10;;;15.90;;
64210;SDS011;50528;48.514;14.394;2023-02-15T01:49:58;22.70;;;14.40;;
64210;SDS011;50528;48.514;14.394;2023-02-15T01:50:46;22.10;;;14.20;;
64210;SDS011;50528;48.514;14.394;2023-02-15T01:51:33;21.40;;;14.30;;
64210;SDS011;50528;48.514;14.394;2023-02-15T01:52:11;24.30;;;14.50;;
64210;SDS011;50528;48.514;14.394;2023-02-15T01:52:49;23.20;;;15.50;;
64210;SDS011;50528;48.514;14.394;2023-02-15T01:53:41;22.00;;;15.00;;
64210;SDS011;50528;48.514;14.394;2023-02-15T01:54:22;22.50;;;14.20;;
64210;SDS011;50528;48.514;14.394;2023-02-15T01:55:01;21.70;;;14.50;;
64210;SDS011;50528;48.514;14.394;2023-02-15T01:55:40;19.90;;;14.10;;
64210;SDS011;50528;48.514;14.394;2023-02-15T01:56:22;20.90;;;14.60;;
64210;SDS011;50528;48.514;14.394;2023-02-15T01:56:59;21.80;;;15.00;;
64210;SDS011;50528;48.514;14.394;2023-02-15T01:57:45;22.00;;;14.30;;
64210;SDS011;50528;48.514;14.394;2023-02-15T01:58:21;20.30;;;14.00;;
64210;SDS011;50528;48.514;14.394;2023-02-15T01:59:11;21.60;;;13.70;;
64210;SDS011;50528;48.514;14.394;2023-02-15T01:59:51;22.20;;;14.40;;
64210;SDS011;50528;48.514;14.394;2023-02-15T02:00:29;21.10;;;14.20;;
64210;SDS011;50528;48.514;14.394;2023-02-15T02:01:04;22.50;;;13.70;;
64210;SDS011;50528;48.514;14.394;2023-02-15T02:01:41;20.50;;;14.10;;
64210;SDS011;50528;48.514;14.394;2023-02-15T02:02:15;20.80;;;14.50;;
64210;SDS011;50528;48.514;14.394;2023-02-15T02:02:54;20.40;;;13.80;;
64210;SDS011;50528;48.514;14.394;2023-02-15T02:03:51;22.70;;;14.20;;
64210;SDS011;50528;48.514;14.394;2023-02-15T02:04:49;18.70;;;12.50;;
64210;SDS011;50528;48.514;14.394;2023-02-15T02:05:25;20.60;;;13.30;;
64210;SDS011;50528;48.514;14.394;2023-02-15T02:05:59;20.40;;;13.50;;
64210;SDS011;50528;48.514;14.394;2023-02-15T02:06:33;20.80;;;14.70;;
64210;SDS011;50528;48.514;14.394;2023-02-15T02:07:09;23.90;;;14.90;;
64210;SDS011;50528;48.514;14.394;2023-02-15T02:07:45;25.30;;;15.90;;
64210;SDS011;50528;48.514;14.394;2023-02-15T02:08:23;24.90;;;16.00;;
64210;SDS011;50528;48.514;14.394;2023-02-15T02:08:59;26.20;;;15.80;;
64210;SDS011;50528;48.514;14.394;2023-02-15T02:09:34;25.60;;;16.30;;
64210;SDS011;50528;48.514;14.394;2023-02-15T02:10:12;26.40;;;16.30;;
64210;SDS011;50528;48.514;14.394;2023-02-15T02:10:48;26.30;;;16.60;;
64210;SDS011;50528;48.514;14.394;2023-02-15T02:11:22;25.30;;;16.10;;
64210;SDS011;50528;48.514;14.394;2023-02-15T02:11:55;23.80;;;15.90;;
64210;SDS011;50528;48.514;14.394;2023-02-15T02:12:29;23.80;;;15.90;;
64210;SDS011;50528;48.514;14.394;2023-02-15T02:13:04;25.50;;;17.00;;
64210;SDS011;50528;48.514;14.394;2023-02-15T02:13:42;23.10;;;15.90;;
64210;SDS011;50528;48.514;14.394;2023-02-15T02:14:17;24.30;;;15.80;;
64210;SDS011;50528;48.514;14.394;2023-02-15T02:14:51;25.00;;;15.90;;
64210;SDS011;50528;48.514;14.394;2023-02-15T02:16:26;22.20;;;15.00;;
64210;SDS011;50528;48.514;14.394;2023-02-15T02:17:16;24.80;;;15.60;;
64210;SDS011;50528;48.514;14.394;2023-02-15T02:18:17;23.70;;;16.00;;
64210;SDS011;50528;48.514;14.394;2023-02-15T02:18:59;22.00;;;15.00;;
64210;SDS011;50528;48.514;14.394;2023-02-15T02:24:18;23.10;;;15.00;;
64210;SDS011;50528;48.514;14.394;2023-02-15T02:25:19;21.50;;;14.00;;
64210;SDS011;50528;48.514;14.394;2023-02-15T02:33:16;23.10;;;14.00;;
64210;SDS011;50528;48.514;14.394;2023-02-15T02:33:59;24.00;;;15.00;;
64210;SDS011;50528;48.514;14.394;2023-02-15T02:35:01;25.80;;;15.30;;
64210;SDS011;50528;48.514;14.394;2023-02-15T02:36:00;26.70;;;15.00;;
64210;SDS011;50528;48.514;14.394;2023-02-15T02:39:37;30.90;;;16.50;;
64210;SDS011;50528;48.514;14.394;2023-02-15T02:42:49;34.30;;;17.70;;
64210;SDS011;50528;48.514;14.394;2023-02-15T02:44:22;33.60;;;18.00;;
64210;SDS011;50528;48.514;14.394;2023-02-15T02:45:13;32.90;;;17.40;;
64210;SDS011;50528;48.514;14.394;2023-02-15T02:45:57;26.30;;;16.40;;
64210;SDS011;50528;48.514;14.394;2023-02-15T02:46:49;30.00;;;15.60;;
64210;SDS011;50528;48.514;14.394;2023-02-15T02:47:29;30.60;;;16.80;;
64210;SDS011;50528;48.514;14.394;2023-02-15T02:48:12;26.80;;;16.30;;
64210;SDS011;50528;48.514;14.394;2023-02-15T02:48:48;25.80;;;15.60;;
64210;SDS011;50528;48.514;14.394;2023-02-15T02:51:16;25.50;;;14.80;;
64210;SDS011;50528;48.514;14.394;2023-02-15T02:51:58;29.70;;;15.40;;
64210;SDS011;50528;48.514;14.394;2023-02-15T02:53:17;27.60;;;15.50;;
64210;SDS011;50528;48.514;14.394;2023-02-15T02:53:52;25.30;;;15.50;;
64210;SDS011;50528;48.514;14.394;2023-02-15T02:54:29;26.70;;;16.40;;
64210;SDS011;50528;48.514;14.394;2023-02-15T02:55:21;27.50;;;15.90;;
64210;SDS011;50528;48.514;14.394;2023-02-15T02:56:50;24.80;;;14.80;;
64210;SDS011;50528;48.514;14.394;2023-02-15T02:57:26;22.90;;;15.00;;
64210;SDS011;50528;48.514;14.394;2023-02-15T02:58:03;25.00;;;15.20;;
64210;SDS011;50528;48.514;14.394;2023-02-15T02:59:03;25.80;;;15.60;;
64210;SDS011;50528;48.514;14.394;2023-02-15T02:59:38;24.60;;;16.10;;
64210;SDS011;50528;48.514;14.394;2023-02-15T03:00:20;25.20;;;15.30;;
64210;SDS011;50528;48.514;14.394;2023-02-15T03:00:57;23.30;;;14.70;;
64210;SDS011;50528;48.514;14.394;2023-02-15T03:01:41;24.50;;;15.20;;
64210;SDS011;50528;48.514;14.394;2023-02-15T03:02:24;24.20;;;15.40;;
64210;SDS011;50528;48.514;14.394;2023-02-15T03:03:06;29.00;;;15.40;;
64210;SDS011;50528;48.514;14.394;2023-02-15T03:03:52;22.70;;;14.20;;
64210;SDS011;50528;48.514;14.394;2023-02-15T03:04:32;29.20;;;16.10;;
64210;SDS011;50528;48.514;14.394;2023-02-15T03:05:15;30.60;;;16.20;;
64210;SDS011;50528;48.514;14.394;2023-02-15T03:05:54;25.90;;;15.20;;
64210;SDS011;50528;48.514;14.394;2023-02-15T03:06:37;39.10;;;15.90;;
64210;SDS011;50528;48.514;14.394;2023-02-15T03:07:16;32.60;;;16.10;;
64210;SDS011;50528;48.514;14.394;2023-02-15T03:07:55;37.70;;;18.00;;
64210;SDS011;50528;48.514;14.394;2023-02-15T03:08:36;34.20;;;19.10;;
64210;SDS011;50528;48.514;14.394;2023-02-15T03:09:33;37.60;;;19.10;;
64210;SDS011;50528;48.514;14.394;2023-02-15T03:10:21;33.10;;;18.70;;
64210;SDS011;50528;48.514;14.394;2023-02-15T03:10:58;33.20;;;18.70;;
64210;SDS011;50528;48.514;14.394;2023-02-15T03:11:35;31.30;;;18.20;;
64210;SDS011;50528;48.514;14.394;2023-02-15T03:12:10;31.90;;;18.80;;
64210;SDS011;50528;48.514;14.394;2023-02-15T03:12:48;29.60;;;18.20;;
64210;SDS011;50528;48.514;14.394;2023-02-15T03:13:23;29.00;;;17.90;;
64210;SDS011;50528;48.514;14.394;2023-02-15T03:14:00;31.10;;;17.90;;
64210;SDS011;50528;48.514;14.394;2023-02-15T03:14:34;32.40;;;19.00;;
64210;SDS011;50528;48.514;14.394;2023-02-15T03:15:33;34.40;;;19.60;;
64210;SDS011;50528;48.514;14.394;2023-02-15T03:16:25;30.70;;;17.40;;
64210;SDS011;50528;48.514;14.394;2023-02-15T03:17:00;34.40;;;18.80;;
64210;SDS011;50528;48.514;14.394;2023-02-15T03:17:36;36.40;;;19.90;;
64210;SDS011;50528;48.514;14.394;2023-02-15T03:18:14;31.70;;;19.40;;
64210;SDS011;50528;48.514;14.394;2023-02-15T03:18:55;30.50;;;18.00;;
64210;SDS011;50528;48.514;14.394;2023-02-15T03:19:31;29.10;;;17.10;;
64210;SDS011;50528;48.514;14.394;2023-02-15T03:20:09;30.10;;;17.40;;
64210;SDS011;50528;48.514;14.394;2023-02-15T03:20:47;25.60;;;17.00;;
64210;SDS011;50528;48.514;14.394;2023-02-15T03:22:07;24.70;;;16.30;;
64210;SDS011;50528;48.514;14.394;2023-02-15T03:22:35;24.30;;;14.80;;
64210;SDS011;50528;48.514;14.394;2023-02-15T03:23:19;22.70;;;15.10;;
64210;SDS011;50528;48.514;14.394;2023-02-15T03:24:00;25.80;;;15.80;;
64210;SDS011;50528;48.514;14.394;2023-02-15T03:25:16;25.20;;;15.50;;
64210;SDS011;50528;48.514;14.394;2023-02-15T03:25:59;23.40;;;14.80;;
64210;SDS011;50528;48.514;14.394;2023-02-15T03:26:38;24.60;;;15.50;;
64210;SDS011;50528;48.514;14.394;2023-02-15T03:27:16;26.20;;;16.30;;
64210;SDS011;50528;48.514;14.394;2023-02-15T03:27:54;23.90;;;15.70;;
64210;SDS011;50528;48.514;14.394;2023-02-15T03:28:37;24.20;;;16.30;;
64210;SDS011;50528;48.514;14.394;2023-02-15T03:29:22;22.80;;;14.50;;
64210;SDS011;50528;48.514;14.394;2023-02-15T03:29:58;22.00;;;15.20;;
64210;SDS011;50528;48.514;14.394;2023-02-15T03:30:34;22.50;;;15.20;;
64210;SDS011;50528;48.514;14.394;2023-02-15T03:31:10;24.20;;;15.90;;
64210;SDS011;50528;48.514;14.394;2023-02-15T03:31:48;22.50;;;15.40;;
64210;SDS011;50528;48.514;14.394;2023-02-15T03:32:25;22.60;;;16.50;;
64210;SDS011;50528;48.514;14.394;2023-02-15T03:33:01;22.90;;;14.90;;
64210;SDS011;50528;48.514;14.394;2023-02-15T03:33:39;21.80;;;14.70;;
64210;SDS011;50528;48.514;14.394;2023-02-15T03:34:18;20.80;;;14.70;;
64210;SDS011;50528;48.514;14.394;2023-02-15T03:34:52;22.20;;;15.30;;
64210;SDS011;50528;48.514;14.394;2023-02-15T03:35:26;22.00;;;15.00;;
64210;SDS011;50528;48.514;14.394;2023-02-15T03:36:16;23.40;;;15.60;;
64210;SDS011;50528;48.514;14.394;2023-02-15T03:37:16;24.30;;;15.30;;
64210;SDS011;50528;48.514;14.394;2023-02-15T03:37:59;22.60;;;14.50;;
64210;SDS011;50528;48.514;14.394;2023-02-15T03:39:47;24.30;;;14.20;;
64210;SDS011;50528;48.514;14.394;2023-02-15T03:40:28;25.10;;;16.00;;
64210;SDS011;50528;48.514;14.394;2023-02-15T03:41:24;25.10;;;15.20;;
64210;SDS011;50528;48.514;14.394;2023-02-15T03:42:13;25.80;;;16.10;;
64210;SDS011;50528;48.514;14.394;2023-02-15T03:42:55;25.10;;;15.30;;
64210;SDS011;50528;48.514;14.394;2023-02-15T03:44:31;26.30;;;15.30;;
64210;SDS011;50528;48.514;14.394;2023-02-15T03:45:44;25.10;;;16.30;;
64210;SDS011;50528;48.514;14.394;2023-02-15T03:47:28;22.40;;;14.20;;
64210;SDS011;50528;48.514;14.394;2023-02-15T03:48:05;35.00;;;15.40;;
64210;SDS011;50528;48.514;14.394;2023-02-15T03:48:49;43.40;;;14.20;;
64210;SDS011;50528;48.514;14.394;2023-02-15T03:50:16;32.60;;;14.00;;
64210;SDS011;50528;48.514;14.394;2023-02-15T03:51:16;24.00;;;14.20;;
64210;SDS011;50528;48.514;14.394;2023-02-15T03:52:08;23.60;;;14.30;;
64210;SDS011;50528;48.514;14.394;2023-02-15T03:52:44;21.50;;;13.90;;
64210;SDS011;50528;48.514;14.394;2023-02-15T03:53:18;23.00;;;14.70;;
64210;SDS011;50528;48.514;14.394;2023-02-15T03:53:55;23.90;;;15.50;;
64210;SDS011;50528;48.514;14.394;2023-02-15T03:54:31;21.90;;;14.80;;
64210;SDS011;50528;48.514;14.394;2023-02-15T03:55:16;22.90;;;15.00;;
64210;SDS011;50528;48.514;14.394;2023-02-15T03:55:52;24.00;;;15.90;;
64210;SDS011;50528;48.514;14.394;2023-02-15T03:56:27;21.80;;;14.70;;
64210;SDS011;50528;48.514;14.394;2023-02-15T03:57:01;24.00;;;16.40;;
64210;SDS011;50528;48.514;14.394;2023-02-15T03:57:54;22.70;;;14.60;;
64210;SDS011;50528;48.514;14.394;2023-02-15T03:58:47;24.90;;;14.50;;
64210;SDS011;50528;48.514;14.394;2023-02-15T03:59:39;23.80;;;14.90;;
64210;SDS011;50528;48.514;14.394;2023-02-15T04:00:31;24.90;;;15.00;;
64210;SDS011;50528;48.514;14.394;2023-02-15T04:02:40;23.60;;;14.30;;
64210;SDS011;50528;48.514;14.394;2023-02-15T04:03:42;27.10;;;14.90;;
64210;SDS011;50528;48.514;14.394;2023-02-15T04:04:21;23.70;;;15.00;;
64210;SDS011;50528;48.514;14.394;2023-02-15T04:05:05;24.50;;;14.50;;
64210;SDS011;50528;48.514;14.394;2023-02-15T04:05:38;24.60;;;16.20;;
64210;SDS011;50528;48.514;14.394;2023-02-15T04:06:12;24.90;;;16.70;;
64210;SDS011;50528;48.514;14.394;2023-02-15T04:06:46;25.50;;;17.00;;
64210;SDS011;50528;48.514;14.394;2023-02-15T04:07:20;30.20;;;18.40;;
64210;SDS011;50528;48.514;14.394;2023-02-15T04:07:53;31.90;;;19.40;;
64210;SDS011;50528;48.514;14.394;2023-02-15T04:08:27;31.30;;;20.40;;
64210;SDS011;50528;48.514;14.394;2023-02-15T04:09:20;30.40;;;18.10;;
64210;SDS011;50528;48.514;14.394;2023-02-15T04:10:13;29.80;;;18.10;;
64210;SDS011;50528;48.514;14.394;2023-02-15T04:11:05;26.40;;;15.80;;
64210;SDS011;50528;48.514;14.394;2023-02-15T04:11:39;27.50;;;16.60;;